Time;durP1;ratioP1;P1;durP2;ratioP2;P2;SDS_P1;SDS_P2;PMS_P1;PMS_P2;Temp;Humidity;BMP_temperature;BMP_pressure;BME280_temperature;BME280_humidity;BME280_pressure;Samples;Min_cycle;Max_cycle;Signal;HPM_P1;HPM_P2
2021/03/14 00:00:31;;;;;;;8.07;6.00;;;;;;;3.22;77.86;99070.06;1704611;82;21115;-62
2021/03/14 00:02:59;;;;;;;7.73;5.43;;;;;;;3.21;77.87;99070.97;1675361;83;21942;-63
2021/03/14 00:05:27;;;;;;;7.67;6.40;;;;;;;3.20;77.87;99068.34;1672245;83;21546;-63
2021/03/14 00:07:55;;;;;;;9.30;6.23;;;;;;;3.19;77.92;99066.60;1706816;82;21532;-67
2021/03/14 00:12:08;;;;;;;9.60;6.87;;;;;;;3.20;77.98;99052.39;1796744;78;27267;-64
2021/03/14 00:14:35;;;;;;;5.47;4.93;;;;;;;3.15;77.98;99054.33;1775304;79;21476;-68
2021/03/14 00:17:02;;;;;;;9.53;6.17;;;;;;;3.16;78.00;99045.41;1776739;79;21250;-63
2021/03/14 00:19:32;;;;;;;6.90;5.63;;;;;;;3.16;78.02;99044.08;1774362;79;21613;-63
2021/03/14 00:21:59;;;;;;;6.97;6.17;;;;;;;3.16;77.99;99049.39;1774746;79;20938;-63
2021/03/14 00:24:26;;;;;;;7.33;5.73;;;;;;;3.17;78.04;99056.00;1773699;79;21117;-67
2021/03/14 00:26:54;;;;;;;13.00;6.47;;;;;;;3.17;78.00;99048.48;1778441;79;21087;-64
2021/03/14 00:29:21;;;;;;;10.23;6.90;;;;;;;3.15;78.01;99052.51;1775420;79;21450;-63
2021/03/14 00:31:49;;;;;;;12.23;6.23;;;;;;;3.13;78.03;99047.72;1773131;79;21058;-63
2021/03/14 00:34:16;;;;;;;9.10;7.20;;;;;;;3.11;78.03;99043.35;1773789;79;21336;-66
2021/03/14 00:36:43;;;;;;;6.70;5.37;;;;;;;3.11;78.04;99043.35;1776395;79;21182;-64
2021/03/14 00:39:11;;;;;;;5.93;5.33;;;;;;;3.10;78.04;99042.94;1779207;79;21112;-66
2021/03/14 00:41:39;;;;;;;7.43;5.73;;;;;;;3.09;78.08;99049.16;1773799;79;22374;-63
2021/03/14 00:44:06;;;;;;;8.30;5.70;;;;;;;3.07;78.10;99044.34;1768599;79;21820;-63
2021/03/14 00:46:33;;;;;;;6.53;5.63;;;;;;;3.05;78.12;99044.42;1769977;79;21134;-64
2021/03/14 00:49:01;;;;;;;9.23;7.57;;;;;;;3.02;78.12;99046.70;1728154;81;21735;-63
2021/03/14 00:51:28;;;;;;;7.60;5.90;;;;;;;2.99;78.14;99045.45;1715239;81;21167;-66
2021/03/14 00:53:56;;;;;;;10.90;7.23;;;;;;;2.97;78.15;99041.98;1711425;81;21217;-63
2021/03/14 00:56:26;;;;;;;9.97;7.40;;;;;;;2.95;78.22;99050.45;1709766;81;21266;-63
2021/03/14 00:58:53;;;;;;;9.87;6.63;;;;;;;2.95;78.18;99051.78;1712731;82;21455;-63
2021/03/14 01:01:20;;;;;;;9.40;5.53;;;;;;;2.93;78.20;99044.75;1710671;81;21132;-65
2021/03/14 01:03:50;;;;;;;8.57;6.07;;;;;;;2.90;78.20;99039.52;1730840;81;21210;-63
2021/03/14 01:06:17;;;;;;;12.60;6.87;;;;;;;2.89;78.28;99037.80;1713749;81;21580;-65
2021/03/14 01:08:44;;;;;;;9.77;7.57;;;;;;;2.86;78.29;99036.09;1698069;82;21741;-65
2021/03/14 01:11:12;;;;;;;10.17;7.33;;;;;;;2.83;78.36;99036.17;1706970;83;21116;-63
2021/03/14 01:13:41;;;;;;;12.37;8.57;;;;;;;2.79;78.39;99033.20;1700420;82;21199;-63
2021/03/14 01:16:10;;;;;;;13.73;7.37;;;;;;;2.75;78.44;99035.52;1722147;81;21172;-63
2021/03/14 01:18:40;;;;;;;11.23;7.97;;;;;;;2.72;78.47;99034.75;1752580;79;21863;-63
2021/03/14 01:21:07;;;;;;;10.53;6.30;;;;;;;2.69;78.58;99030.38;1756157;79;22006;-65
2021/03/14 01:23:35;;;;;;;10.37;7.37;;;;;;;2.69;78.66;99032.16;1753277;79;21164;-64
2021/03/14 01:26:02;;;;;;;12.33;8.50;;;;;;;2.66;78.74;99022.48;1758001;79;21191;-65
2021/03/14 01:28:29;;;;;;;15.33;9.13;;;;;;;2.63;78.79;99026.13;1755647;79;21184;-65
2021/03/14 01:30:56;;;;;;;14.33;8.30;;;;;;;2.62;78.84;99030.14;1756575;79;21284;-67
2021/03/14 01:33:26;;;;;;;11.10;8.27;;;;;;;2.59;78.89;99022.25;1757212;79;21168;-63
2021/03/14 01:35:54;;;;;;;11.00;7.90;;;;;;;2.56;78.94;99013.89;1756993;79;21191;-64
2021/03/14 01:38:21;;;;;;;10.23;7.90;;;;;;;2.55;78.98;99017.46;1753659;79;21232;-62
2021/03/14 01:40:48;;;;;;;10.93;7.97;;;;;;;2.54;78.98;99016.20;1752989;79;21670;-64
2021/03/14 01:43:15;;;;;;;11.07;7.63;;;;;;;2.52;79.10;99014.91;1756894;79;21536;-63
2021/03/14 01:45:43;;;;;;;10.27;8.20;;;;;;;2.48;79.19;99016.34;1753615;79;21868;-65
2021/03/14 01:48:10;;;;;;;11.60;8.27;;;;;;;2.45;79.27;99012.02;1756764;79;22444;-67
2021/03/14 01:50:37;;;;;;;11.23;8.77;;;;;;;2.42;79.34;99013.87;1724709;81;21667;-65
2021/03/14 01:53:05;;;;;;;7.60;6.77;;;;;;;2.37;79.47;99010.48;1756600;79;21156;-67
2021/03/14 01:55:32;;;;;;;10.60;7.70;;;;;;;2.37;79.54;99010.48;1755679;79;21802;-63
2021/03/14 01:58:00;;;;;;;11.03;7.57;;;;;;;2.36;79.63;99006.95;1755327;79;21200;-65
2021/03/14 02:00:28;;;;;;;10.03;7.37;;;;;;;2.34;79.74;99008.77;1755262;79;21172;-65
2021/03/14 02:02:55;;;;;;;15.10;7.23;;;;;;;2.35;79.81;99005.20;1754474;79;21187;-62
2021/03/14 02:05:23;;;;;;;9.20;7.67;;;;;;;2.34;79.86;99009.22;1753568;79;21202;-63
2021/03/14 02:07:53;;;;;;;12.27;8.43;;;;;;;2.32;79.94;99010.58;1720314;81;21215;-67
2021/03/14 02:10:23;;;;;;;11.43;8.13;;;;;;;2.31;79.98;99009.29;1756231;79;21555;-64
2021/03/14 02:13:13;;;;;;;13.43;7.53;;;;;;;2.28;80.01;99025.75;1731924;79;21515;-63
2021/03/14 02:15:45;;;;;;;9.97;7.73;;;;;;;2.27;80.10;99024.45;1753956;79;21195;-63
2021/03/14 02:18:12;;;;;;;9.83;7.90;;;;;;;2.25;80.22;99024.48;1757002;79;21195;-65
2021/03/14 02:20:41;;;;;;;10.17;7.87;;;;;;;2.24;80.36;99020.09;1752417;79;21324;-65
2021/03/14 02:23:42;;;;;;;7.00;5.50;;;;;;;2.23;80.43;99030.28;1756087;80;21571;-63
2021/03/14 02:26:15;;;;;;;12.50;7.53;;;;;;;2.22;80.45;99023.69;1754637;79;21148;-63
2021/03/14 02:28:42;;;;;;;12.37;7.40;;;;;;;2.20;80.54;99023.75;1758949;79;21430;-60
2021/03/14 02:31:09;;;;;;;10.03;8.27;;;;;;;2.18;80.63;99027.34;1757147;79;21163;-58
2021/03/14 02:33:38;;;;;;;11.07;8.63;;;;;;;2.15;80.74;99025.63;1756419;79;21141;-63
2021/03/14 02:36:07;;;;;;;13.43;9.53;;;;;;;2.14;80.76;99022.56;1758503;79;21117;-59
2021/03/14 02:38:35;;;;;;;11.67;8.70;;;;;;;2.12;80.84;99026.19;1696930;81;21497;-64
2021/03/14 02:41:02;;;;;;;12.90;8.70;;;;;;;2.12;80.89;99027.06;1755829;79;21524;-59
2021/03/14 02:43:30;;;;;;;8.80;7.47;;;;;;;2.12;80.92;99020.42;1728038;79;21131;-60
2021/03/14 02:45:57;;;;;;;10.27;8.57;;;;;;;2.13;81.00;99025.25;1758775;80;21693;-62
2021/03/14 02:48:25;;;;;;;9.23;7.87;;;;;;;2.13;81.00;99031.88;1755188;79;21116;-64
2021/03/14 02:50:52;;;;;;;12.43;10.20;;;;;;;2.12;81.03;99029.72;1756677;79;21571;-63
2021/03/14 02:53:19;;;;;;;12.13;9.47;;;;;;;2.10;81.06;99026.22;1754783;79;21659;-59
2021/03/14 02:55:47;;;;;;;13.50;10.90;;;;;;;2.08;81.08;99029.36;1728068;80;21118;-64
2021/03/14 02:58:14;;;;;;;13.50;10.60;;;;;;;2.05;81.09;99039.17;1754754;79;22081;-62
2021/03/14 03:00:42;;;;;;;12.63;10.50;;;;;;;2.04;81.17;99042.77;1756520;79;21986;-58
2021/03/14 03:03:10;;;;;;;15.77;11.50;;;;;;;2.03;81.23;99039.69;1755624;79;21115;-59
2021/03/14 03:05:38;;;;;;;14.17;10.87;;;;;;;2.01;81.34;99046.36;1756301;79;21566;-59
2021/03/14 03:08:06;;;;;;;17.10;13.00;;;;;;;2.01;81.40;99040.18;1754024;79;21072;-59
2021/03/14 03:10:41;;;;;;;16.47;13.20;;;;;;;2.01;81.50;99048.14;1756416;79;22089;-59
2021/03/14 03:13:09;;;;;;;24.10;15.40;;;;;;;1.99;81.60;99044.20;1688375;81;21426;-64
2021/03/14 03:15:36;;;;;;;21.33;13.97;;;;;;;2.00;81.69;99049.92;1716614;81;21116;-59
2021/03/14 03:18:03;;;;;;;23.30;14.93;;;;;;;2.00;81.80;99050.38;1716544;81;21545;-63
2021/03/14 03:20:32;;;;;;;20.83;13.57;;;;;;;2.01;81.88;99052.12;1715912;81;21107;-60
2021/03/14 03:22:59;;;;;;;27.20;13.30;;;;;;;2.01;81.97;99055.66;1686164;81;22357;-58
2021/03/14 03:25:27;;;;;;;22.13;14.83;;;;;;;2.02;82.04;99051.22;1713690;81;21209;-58
2021/03/14 03:27:54;;;;;;;21.40;14.50;;;;;;;2.02;82.11;99049.44;1714449;81;21175;-60
2021/03/14 03:30:24;;;;;;;23.10;15.60;;;;;;;2.04;82.17;99038.79;1714336;81;21202;-61
2021/03/14 03:32:51;;;;;;;28.53;17.93;;;;;;;2.04;82.22;99040.95;1718130;81;21123;-61
2021/03/14 03:35:19;;;;;;;29.00;19.17;;;;;;;2.03;82.27;99041.02;1713796;81;22109;-63
2021/03/14 03:37:47;;;;;;;26.23;16.87;;;;;;;2.02;82.36;99039.27;1712857;81;21218;-60
2021/03/14 03:40:20;;;;;;;29.53;18.87;;;;;;;2.00;82.41;99031.34;1714690;81;21148;-59
2021/03/14 03:43:04;;;;;;;31.27;18.80;;;;;;;2.01;82.43;99022.47;1716419;81;21120;-64
2021/03/14 03:45:34;;;;;;;30.93;19.00;;;;;;;2.01;82.49;99013.19;1718137;81;21393;-60
2021/03/14 03:48:01;;;;;;;24.63;16.00;;;;;;;2.02;82.56;99016.71;1713854;81;21971;-64
2021/03/14 03:50:30;;;;;;;32.47;17.70;;;;;;;2.02;82.59;99018.91;1711215;81;21732;-61
2021/03/14 03:52:58;;;;;;;30.87;19.93;;;;;;;2.01;82.64;99010.53;1714783;81;21187;-64
2021/03/14 03:55:25;;;;;;;35.73;21.73;;;;;;;2.01;82.65;99005.22;1711281;81;21803;-63
2021/03/14 03:57:52;;;;;;;29.93;18.43;;;;;;;1.99;82.70;99008.36;1713453;81;21202;-62
2021/03/14 04:00:20;;;;;;;32.43;18.50;;;;;;;1.98;82.72;99001.76;1716445;81;21716;-63
2021/03/14 04:02:47;;;;;;;30.37;18.60;;;;;;;1.99;82.76;99012.80;1714945;81;21187;-63
2021/03/14 04:05:15;;;;;;;33.10;19.23;;;;;;;2.00;82.76;99003.92;1715993;81;21951;-59
2021/03/14 04:07:45;;;;;;;32.20;18.43;;;;;;;2.00;82.78;99006.12;1715141;81;21243;-62
2021/03/14 04:10:16;;;;;;;28.90;17.70;;;;;;;2.00;82.85;98998.16;1719518;81;21241;-64
2021/03/14 04:12:43;;;;;;;28.77;16.50;;;;;;;2.02;82.87;98991.04;1737683;80;22274;-61
2021/03/14 04:15:14;;;;;;;27.73;16.87;;;;;;;2.03;82.87;98994.56;1728423;80;21513;-63
2021/03/14 04:17:42;;;;;;;26.53;17.43;;;;;;;2.06;82.89;98990.48;1748136;80;21220;-62
2021/03/14 04:20:20;;;;;;;32.47;19.50;;;;;;;2.06;82.89;98992.69;1754548;80;21164;-62
2021/03/14 04:22:52;;;;;;;31.87;18.07;;;;;;;2.04;82.91;98991.01;1751991;80;21614;-58
2021/03/14 04:25:20;;;;;;;33.70;18.33;;;;;;;2.02;82.90;98987.52;1730284;80;21466;-59
2021/03/14 04:27:48;;;;;;;27.87;17.93;;;;;;;2.01;82.94;98991.95;1752159;80;21226;-61
2021/03/14 04:30:16;;;;;;;27.23;17.13;;;;;;;2.03;82.94;98990.59;1713656;81;21193;-60
2021/03/14 04:32:44;;;;;;;26.80;15.70;;;;;;;2.02;82.94;98984.86;1700182;82;21123;-60
2021/03/14 04:35:11;;;;;;;26.33;16.23;;;;;;;2.03;82.98;98981.30;1754346;80;21604;-61
2021/03/14 04:37:39;;;;;;;24.13;16.20;;;;;;;2.04;83.00;98981.23;1751933;80;22117;-61
2021/03/14 04:40:09;;;;;;;31.43;18.67;;;;;;;2.04;82.99;98979.90;1756490;80;21929;-58
2021/03/14 04:42:38;;;;;;;29.00;17.03;;;;;;;2.01;82.98;98981.78;1748371;80;21191;-63
2021/03/14 04:45:07;;;;;;;29.77;16.90;;;;;;;1.99;83.03;98979.16;1756556;80;21614;-59
2021/03/14 04:47:34;;;;;;;26.23;16.57;;;;;;;2.00;83.03;98980.91;1735279;80;21247;-60
2021/03/14 04:50:04;;;;;;;25.00;16.17;;;;;;;2.02;82.99;98985.73;1758075;80;22139;-58
2021/03/14 04:52:31;;;;;;;20.03;13.00;;;;;;;2.02;83.00;98992.37;1753595;80;21240;-63
2021/03/14 04:54:59;;;;;;;21.67;13.83;;;;;;;2.04;83.01;99005.12;1715617;81;21203;-63
2021/03/14 04:57:27;;;;;;;25.80;14.97;;;;;;;2.04;82.98;99005.12;1716841;81;21208;-61
2021/03/14 04:59:54;;;;;;;22.20;14.53;;;;;;;2.05;82.96;99011.30;1700820;82;21544;-59
2021/03/14 05:02:21;;;;;;;20.87;13.60;;;;;;;2.06;82.95;99011.72;1716568;81;22253;-61
2021/03/14 05:04:48;;;;;;;22.43;13.60;;;;;;;2.07;82.89;99006.38;1676685;83;21240;-60
2021/03/14 05:07:16;;;;;;;18.00;12.70;;;;;;;2.04;82.83;99003.79;1754688;80;21519;-60
2021/03/14 05:09:45;;;;;;;16.00;10.10;;;;;;;2.04;82.78;99010.42;1756024;79;21181;-59
2021/03/14 05:12:13;;;;;;;14.67;9.07;;;;;;;2.03;82.75;99008.72;1752861;79;21188;-59
2021/03/14 05:14:40;;;;;;;13.13;9.40;;;;;;;2.03;82.74;99018.00;1754591;79;22303;-60
2021/03/14 05:17:07;;;;;;;11.20;8.83;;;;;;;2.02;82.70;99016.26;1755739;79;21431;-60
2021/03/14 05:19:38;;;;;;;11.40;8.93;;;;;;;2.02;82.70;99014.93;1710077;79;21127;-60
2021/03/14 05:22:07;;;;;;;12.57;8.60;;;;;;;2.02;82.67;99010.95;1758074;79;21738;-59
2021/03/14 05:24:34;;;;;;;11.23;8.63;;;;;;;2.02;82.70;99014.93;1757427;79;21621;-60
2021/03/14 05:27:03;;;;;;;10.73;7.10;;;;;;;2.01;82.64;99021.14;1755629;79;21356;-61
2021/03/14 05:29:30;;;;;;;9.73;7.33;;;;;;;1.99;82.69;99030.92;1730652;79;21834;-59
2021/03/14 05:31:57;;;;;;;13.33;8.87;;;;;;;2.01;82.66;99021.59;1759632;79;21619;-60
2021/03/14 05:34:25;;;;;;;11.37;7.33;;;;;;;2.01;82.67;99022.92;1760097;79;21099;-58
2021/03/14 05:36:52;;;;;;;10.13;6.90;;;;;;;2.03;82.72;99023.77;1757044;79;21513;-59
2021/03/14 05:39:19;;;;;;;8.70;6.87;;;;;;;2.04;82.69;99022.38;1759219;79;22567;-58
2021/03/14 05:41:46;;;;;;;7.67;6.43;;;;;;;2.06;82.73;99023.67;1759032;80;21188;-59
2021/03/14 05:44:14;;;;;;;10.27;8.20;;;;;;;2.10;82.72;99020.04;1761005;79;21160;-59
2021/03/14 05:46:41;;;;;;;9.63;6.97;;;;;;;2.10;82.71;99020.91;1759793;79;21125;-61
2021/03/14 05:49:09;;;;;;;11.07;8.77;;;;;;;2.12;82.70;99017.77;1758846;79;21120;-61
2021/03/14 05:51:43;;;;;;;8.80;6.70;;;;;;;2.15;82.68;99020.78;1760217;79;21380;-60
2021/03/14 05:54:12;;;;;;;10.85;7.55;;;;;;;2.18;82.61;99022.91;1759852;79;21528;-64
2021/03/14 05:56:48;;;;;;;8.63;6.97;;;;;;;2.22;82.58;99011.73;1728730;79;21103;-56
2021/03/14 05:59:18;;;;;;;8.03;5.97;;;;;;;2.24;82.55;99021.41;1758896;79;21157;-58
2021/03/14 06:01:49;;;;;;;8.97;6.83;;;;;;;2.27;82.48;99005.87;1759088;79;21112;-60
2021/03/14 06:04:17;;;;;;;10.40;7.07;;;;;;;2.30;82.45;99016.39;1759963;79;21506;-63
2021/03/14 06:06:46;;;;;;;9.30;7.23;;;;;;;2.33;82.39;99005.69;1756075;79;21554;-60
2021/03/14 06:09:16;;;;;;;10.87;7.73;;;;;;;2.36;82.30;99009.61;1761185;79;21175;-61
2021/03/14 06:11:43;;;;;;;9.97;7.73;;;;;;;2.38;82.23;99006.46;1760280;79;21898;-60
2021/03/14 06:14:11;;;;;;;8.50;6.10;;;;;;;2.41;82.10;99012.13;1757342;79;21117;-60
2021/03/14 06:16:38;;;;;;;6.97;5.23;;;;;;;2.41;82.08;99009.01;1759375;79;22236;-57
2021/03/14 06:19:05;;;;;;;8.43;5.97;;;;;;;2.46;82.06;99003.13;1752754;79;21512;-59
2021/03/14 06:21:33;;;;;;;7.73;6.00;;;;;;;2.51;81.99;98997.22;1756235;79;21124;-60
2021/03/14 06:24:08;;;;;;;7.83;6.53;;;;;;;2.55;81.88;98993.55;1714544;81;21116;-61
2021/03/14 06:26:47;;;;;;;10.30;7.60;;;;;;;2.57;81.83;98996.17;1699822;82;21241;-60
2021/03/14 06:29:24;;;;;;;9.27;6.33;;;;;;;2.60;81.74;99002.73;1702198;82;21662;-59
2021/03/14 06:31:56;;;;;;;6.30;5.30;;;;;;;2.64;81.65;98997.73;1753150;79;21517;-60
2021/03/14 06:34:35;;;;;;;7.50;6.07;;;;;;;2.70;81.57;98999.37;1752331;79;21211;-61
2021/03/14 06:37:16;;;;;;;6.63;5.60;;;;;;;2.75;81.41;99005.41;1757218;79;21425;-59
2021/03/14 06:39:49;;;;;;;8.20;6.50;;;;;;;2.79;81.29;99011.06;1751681;79;21971;-60
2021/03/14 06:42:34;;;;;;;8.23;6.67;;;;;;;2.81;81.20;99009.20;1753505;79;21450;-59
2021/03/14 06:45:08;;;;;;;7.75;6.05;;;;;;;2.81;81.05;98999.91;1753606;79;21205;-58
2021/03/14 06:47:48;;;;;;;6.67;5.97;;;;;;;2.79;80.95;99009.73;1758074;79;21227;-63
2021/03/14 06:50:35;;;;;;;10.03;5.20;;;;;;;2.79;80.96;99014.59;1713751;81;21493;-60
2021/03/14 06:53:17;;;;;;;8.47;6.33;;;;;;;2.84;80.91;99011.34;1718086;81;21199;-59
2021/03/14 06:55:49;;;;;;;5.77;5.03;;;;;;;2.88;80.85;99007.69;1701165;82;22830;-59
2021/03/14 06:58:34;;;;;;;6.17;5.03;;;;;;;2.94;80.77;99011.48;1673975;82;21251;-60
2021/03/14 07:01:21;;;;;;;5.70;4.60;;;;;;;2.99;80.63;99001.58;1702103;82;21236;-64
2021/03/14 07:03:50;;;;;;;5.47;4.83;;;;;;;3.04;80.49;99011.64;1700392;82;21205;-64
2021/03/14 07:06:25;;;;;;;6.73;5.70;;;;;;;3.06;80.32;99012.05;1754413;79;21175;-64
2021/03/14 07:08:59;;;;;;;5.83;4.73;;;;;;;3.07;80.24;99022.62;1754306;79;22223;-63
2021/03/14 07:11:39;;;;;;;6.70;4.70;;;;;;;3.10;80.03;99022.99;1758274;79;21207;-64
2021/03/14 07:14:15;;;;;;;4.63;3.67;;;;;;;3.08;79.90;99027.02;1751515;79;21168;-61
2021/03/14 07:16:50;;;;;;;5.87;4.83;;;;;;;3.05;79.80;99037.77;1751007;79;21295;-57
2021/03/14 07:19:28;;;;;;;5.25;4.75;;;;;;;3.02;79.80;99036.06;1755977;79;21505;-60
2021/03/14 07:22:09;;;;;;;3.77;3.40;;;;;;;3.02;79.79;99042.70;1754957;79;21140;-60
2021/03/14 07:24:38;;;;;;;5.80;5.03;;;;;;;3.01;79.70;99044.95;1749930;79;21192;-61
2021/03/14 07:27:12;;;;;;;5.53;4.40;;;;;;;3.02;79.64;99044.49;1751080;79;21180;-61
2021/03/14 07:29:40;;;;;;;6.28;4.30;;;;;;;3.03;79.60;99049.77;1750663;80;21204;-61
2021/03/14 07:32:08;;;;;;;3.77;3.40;;;;;;;3.08;79.64;99048.30;1687889;83;21544;-63
2021/03/14 07:34:35;;;;;;;5.43;4.40;;;;;;;3.15;79.55;99060.98;1753378;79;22239;-60
2021/03/14 07:37:03;;;;;;;5.53;4.23;;;;;;;3.17;79.46;99053.34;1751627;79;21217;-59
2021/03/14 07:39:31;;;;;;;4.57;4.17;;;;;;;3.20;79.43;99052.39;1753662;79;21246;-58
2021/03/14 07:41:58;;;;;;;4.17;3.47;;;;;;;3.24;79.30;99047.38;1752164;80;21096;-62
2021/03/14 07:44:26;;;;;;;5.03;4.03;;;;;;;3.26;79.20;99046.42;1751313;79;21504;-64
2021/03/14 07:46:54;;;;;;;4.10;3.70;;;;;;;3.33;79.09;99041.78;1753206;79;21209;-60
2021/03/14 07:49:25;;;;;;;4.50;3.60;;;;;;;3.38;78.90;99038.09;1756992;80;21763;-63
2021/03/14 07:51:55;;;;;;;3.33;3.00;;;;;;;3.43;78.75;99025.50;1749535;80;21524;-60
2021/03/14 07:54:39;;;;;;;4.13;3.63;;;;;;;3.46;78.52;99026.33;1755953;80;21183;-64
2021/03/14 07:57:07;;;;;;;4.30;3.90;;;;;;;3.44;78.41;99027.70;1753615;79;21176;-63
2021/03/14 07:59:36;;;;;;;6.00;3.97;;;;;;;3.43;78.39;99018.84;1752133;79;21180;-63
2021/03/14 08:02:26;;;;;;;2.97;2.30;;;;;;;3.48;78.21;99025.37;1757254;79;21188;-59
2021/03/14 08:04:58;;;;;;;3.40;2.43;;;;;;;3.51;78.05;99004.43;1756049;79;21103;-62
2021/03/14 08:07:40;;;;;;;2.73;2.13;;;;;;;3.55;77.99;99016.73;1751357;80;21100;-59
2021/03/14 08:10:09;;;;;;;3.07;2.77;;;;;;;3.60;77.91;99006.34;1752380;80;21142;-59
2021/03/14 08:12:38;;;;;;;3.40;3.10;;;;;;;3.64;77.83;99005.80;1751229;79;21370;-60
2021/03/14 08:15:23;;;;;;;3.83;2.60;;;;;;;3.71;77.70;99011.33;1750684;79;21208;-61
2021/03/14 08:17:55;;;;;;;3.33;3.00;;;;;;;3.76;77.65;98998.73;1756201;79;21180;-60
2021/03/14 08:20:43;;;;;;;3.77;2.83;;;;;;;3.82;77.38;99015.85;1752422;79;21212;-58
2021/03/14 08:23:17;;;;;;;2.67;2.47;;;;;;;3.88;77.21;99020.97;1754435;81;21523;-60
2021/03/14 08:25:47;;;;;;;2.13;1.93;;;;;;;3.96;77.16;99017.59;1753762;81;21204;-58
2021/03/14 08:28:34;;;;;;;2.30;2.10;;;;;;;4.06;77.02;99022.16;1752614;81;21705;-60
2021/03/14 08:31:12;;;;;;;2.70;2.37;;;;;;;4.14;76.74;99016.10;1755525;81;21053;-66
2021/03/14 08:33:44;;;;;;;2.40;2.20;;;;;;;4.16;76.46;99018.27;1756390;81;21191;-59
2021/03/14 08:36:33;;;;;;;3.87;3.33;;;;;;;4.19;76.19;99032.33;1824868;76;27191;-60
2021/03/14 08:39:06;;;;;;;2.13;1.87;;;;;;;4.13;76.10;99041.87;1785863;77;21186;-61
2021/03/14 08:41:50;;;;;;;2.77;2.13;;;;;;;4.14;76.16;99038.28;1786039;77;21300;-61
2021/03/14 08:44:40;;;;;;;2.07;1.87;;;;;;;4.19;76.01;99038.98;1773549;78;21174;-59
2021/03/14 08:47:27;;;;;;;3.30;2.50;;;;;;;4.19;76.03;99037.66;1774553;78;21163;-60
2021/03/14 08:50:14;;;;;;;2.60;2.40;;;;;;;4.25;75.89;99034.39;1820647;75;26528;-60
2021/03/14 08:52:49;;;;;;;2.57;2.37;;;;;;;4.19;75.74;99041.66;1740280;80;21140;-59
2021/03/14 08:55:27;;;;;;;3.03;2.43;;;;;;;4.18;75.80;99030.58;1761984;79;21459;-61
2021/03/14 08:57:55;;;;;;;2.73;1.80;;;;;;;4.19;75.78;99034.99;1744335;80;21153;-64
2021/03/14 09:00:23;;;;;;;2.20;2.00;;;;;;;4.23;75.68;99031.78;1758041;79;21030;-63
2021/03/14 09:02:53;;;;;;;2.50;2.30;;;;;;;4.24;75.73;99023.33;1793858;77;21107;-61
2021/03/14 09:05:24;;;;;;;2.53;2.33;;;;;;;4.23;75.62;99033.11;1794274;77;21542;-63
2021/03/14 09:08:00;;;;;;;3.20;2.67;;;;;;;4.25;75.76;99033.06;1689112;80;21427;-65
2021/03/14 09:10:35;;;;;;;2.30;2.10;;;;;;;4.28;75.76;99028.94;1763215;79;21424;-63
2021/03/14 09:13:04;;;;;;;2.33;1.50;;;;;;;4.33;75.69;99027.01;1743796;79;20983;-63
2021/03/14 09:15:53;;;;;;;2.90;2.53;;;;;;;4.35;75.63;99027.34;1791193;77;21095;-63
2021/03/14 09:18:48;;;;;;;3.67;2.00;;;;;;;4.42;75.53;99018.20;1795617;77;20973;-63
2021/03/14 09:21:16;;;;;;;2.13;1.93;;;;;;;4.49;75.44;99009.55;1796930;77;21925;-59
2021/03/14 09:23:45;;;;;;;3.40;2.27;;;;;;;4.53;75.33;99008.50;1794685;77;21117;-62
2021/03/14 09:26:16;;;;;;;2.97;2.77;;;;;;;4.58;75.33;99008.36;1795704;77;21115;-62
2021/03/14 09:28:45;;;;;;;4.27;2.30;;;;;;;4.64;75.18;99003.67;1786992;77;21511;-64
2021/03/14 09:31:15;;;;;;;2.57;2.37;;;;;;;4.69;75.04;99007.48;1793529;77;21174;-65
2021/03/14 09:33:44;;;;;;;2.60;2.40;;;;;;;4.72;74.93;99002.05;1801381;77;21586;-61
2021/03/14 09:36:14;;;;;;;2.20;1.77;;;;;;;4.77;74.82;99005.41;1797882;77;21677;-64
2021/03/14 09:38:43;;;;;;;2.63;2.00;;;;;;;4.82;74.64;98999.00;1792642;77;21181;-63
2021/03/14 09:41:20;;;;;;;2.80;2.60;;;;;;;4.91;74.37;99007.12;1837041;74;28471;-64
2021/03/14 09:43:48;;;;;;;2.60;2.43;;;;;;;4.93;74.27;99013.28;1827559;76;21194;-62
2021/03/14 09:46:34;;;;;;;3.50;3.20;;;;;;;5.03;73.93;99009.31;1792089;76;30036;-62
2021/03/14 09:49:14;;;;;;;2.70;2.50;;;;;;;5.05;73.80;99007.93;1784247;77;21629;-63
2021/03/14 09:52:02;;;;;;;2.60;2.40;;;;;;;5.13;73.29;99008.51;1822016;76;26582;-61
2021/03/14 09:54:31;;;;;;;3.33;3.03;;;;;;;5.05;73.28;99007.93;1789383;77;21493;-64
2021/03/14 09:56:58;;;;;;;3.83;2.80;;;;;;;5.01;73.12;99003.66;1789419;77;21250;-59
2021/03/14 09:59:27;;;;;;;2.73;2.53;;;;;;;4.94;72.93;99005.66;1790623;77;21186;-63
2021/03/14 10:02:07;;;;;;;2.93;2.67;;;;;;;4.93;73.03;98999.45;1865022;75;26861;-62
2021/03/14 10:04:45;;;;;;;5.40;2.93;;;;;;;4.91;73.01;99008.00;1780410;78;21130;-61
2021/03/14 10:07:22;;;;;;;2.63;2.43;;;;;;;4.93;72.99;99002.61;1792082;78;21451;-59
2021/03/14 10:09:49;;;;;;;3.57;3.27;;;;;;;4.91;73.00;99009.33;1783589;78;21535;-63
2021/03/14 10:12:18;;;;;;;4.30;3.90;;;;;;;4.92;73.01;99007.08;1810185;77;21157;-57
2021/03/14 10:14:46;;;;;;;3.97;3.40;;;;;;;4.89;72.99;98996.97;1774759;77;21194;-62
2021/03/14 10:17:13;;;;;;;5.27;4.10;;;;;;;4.88;73.13;98991.23;1807291;78;20937;-60
2021/03/14 10:19:41;;;;;;;5.57;5.03;;;;;;;4.87;73.17;98985.02;1811241;77;21191;-60
2021/03/14 10:22:09;;;;;;;4.07;3.77;;;;;;;4.88;73.19;98988.56;1784576;78;21476;-57
2021/03/14 10:24:44;;;;;;;4.33;3.93;;;;;;;4.88;73.17;98996.09;1771197;78;21208;-59
2021/03/14 10:27:19;;;;;;;5.40;4.93;;;;;;;4.88;73.17;98980.56;1808294;78;21173;-64
2021/03/14 10:29:55;;;;;;;6.20;5.60;;;;;;;4.86;73.21;98981.95;1809386;77;21395;-58
2021/03/14 10:32:33;;;;;;;5.73;5.17;;;;;;;4.89;73.33;98971.17;1866267;75;26773;-62
2021/03/14 10:35:04;;;;;;;6.07;5.37;;;;;;;4.88;73.30;98977.44;1840375;76;21047;-64
2021/03/14 10:37:35;;;;;;;6.33;5.60;;;;;;;4.87;73.21;98965.48;1840619;76;21529;-64
2021/03/14 10:40:08;;;;;;;5.30;4.63;;;;;;;4.86;73.23;98963.74;1843175;76;21186;-64
2021/03/14 10:42:44;;;;;;;7.10;5.80;;;;;;;4.87;73.16;98965.48;1821475;76;21182;-62
2021/03/14 10:45:19;;;;;;;6.23;5.63;;;;;;;4.86;73.14;98960.61;1770873;78;21351;-61
2021/03/14 10:48:04;;;;;;;8.43;6.97;;;;;;;4.87;73.23;98956.16;1731804;79;21624;-61
2021/03/14 10:50:39;;;;;;;7.93;6.60;;;;;;;4.86;73.20;98961.08;1762963;79;21682;-64
2021/03/14 10:53:21;;;;;;;9.47;7.80;;;;;;;4.87;73.25;98957.02;1819900;76;22662;-59
2021/03/14 10:56:05;;;;;;;8.87;6.83;;;;;;;4.85;73.24;98954.88;1791203;77;20984;-63
2021/03/14 10:58:39;;;;;;;7.87;6.50;;;;;;;4.83;73.12;98950.09;1792263;77;22167;-61
2021/03/14 11:01:35;;;;;;;12.43;9.50;;;;;;;4.83;73.17;98947.88;1821102;75;27245;-63
2021/03/14 11:04:02;;;;;;;10.87;8.47;;;;;;;4.76;73.25;98956.58;1794491;77;21189;-61
2021/03/14 11:06:30;;;;;;;13.32;10.30;;;;;;;4.74;73.29;98953.56;1776160;77;21349;-61
2021/03/14 11:09:06;;;;;;;11.47;9.43;;;;;;;4.71;73.36;98950.53;1792346;77;22443;-60
2021/03/14 11:11:45;;;;;;;13.13;8.47;;;;;;;4.67;73.51;98942.27;1798530;77;20961;-61
2021/03/14 11:14:38;;;;;;;9.97;6.83;;;;;;;4.73;73.62;98931.82;1863801;75;26854;-64
2021/03/14 11:17:23;;;;;;;10.43;6.57;;;;;;;4.72;73.65;98938.95;1783718;78;21134;-61
2021/03/14 11:19:55;;;;;;;11.80;7.97;;;;;;;4.73;73.73;98936.69;1776770;78;21201;-63
2021/03/14 11:22:25;;;;;;;10.17;7.63;;;;;;;4.74;73.83;98931.77;1777163;78;21571;-60
2021/03/14 11:24:53;;;;;;;11.03;8.03;;;;;;;4.73;73.81;98927.82;1798905;78;21232;-62
2021/03/14 11:27:22;;;;;;;10.43;7.77;;;;;;;4.73;73.86;98921.16;1800833;78;21213;-62
2021/03/14 11:29:52;;;;;;;11.40;8.23;;;;;;;4.74;73.93;98909.11;1801096;78;21397;-62
2021/03/14 11:32:22;;;;;;;12.83;8.37;;;;;;;4.78;73.91;98913.84;1803962;77;21244;-60
2021/03/14 11:34:52;;;;;;;10.07;7.90;;;;;;;4.82;74.00;98912.34;1798079;78;20982;-64
2021/03/14 11:37:29;;;;;;;10.30;8.23;;;;;;;4.93;73.91;98899.94;1867863;75;27007;-61
2021/03/14 11:40:09;;;;;;;11.27;8.20;;;;;;;4.93;73.98;98905.27;1836512;76;21148;-60
2021/03/14 11:42:38;;;;;;;10.63;8.00;;;;;;;4.98;73.98;98899.28;1761591;78;21211;-63
2021/03/14 11:45:11;;;;;;;11.57;8.73;;;;;;;5.02;73.79;98900.88;1774915;79;21118;-63
2021/03/14 11:47:38;;;;;;;12.87;6.53;;;;;;;5.02;73.75;98902.72;1792162;78;21490;-63
2021/03/14 11:50:22;;;;;;;11.60;8.03;;;;;;;5.06;73.73;98886.52;1867827;75;26630;-63
2021/03/14 11:52:49;;;;;;;11.40;7.70;;;;;;;5.08;73.78;98893.13;1843083;76;21024;-59
2021/03/14 11:55:19;;;;;;;11.97;8.63;;;;;;;5.15;73.77;98883.95;1801976;78;22156;-63
2021/03/14 11:57:47;;;;;;;13.93;9.30;;;;;;;5.21;73.75;98881.89;1773522;78;21111;-61